Time;durP1;ratioP1;P1;durP2;ratioP2;P2;SDS_P1;SDS_P2;PMS_P1;PMS_P2;Temp;Humidity;BMP_temperature;BMP_pressure;BME280_temperature;BME280_humidity;BME280_pressure;Samples;Min_cycle;Max_cycle;Signal;HPM_P1;HPM_P2
2022/03/06 00:01:44;;;;;;;0.00;0.00;;;;;;;7.05;50.25;102774.81;7351218;19;20018;-61
2022/03/06 00:04:10;;;;;;;0.00;0.00;;;;;;;7.00;50.13;102772.97;7358804;19;20014;-61
2022/03/06 00:06:37;;;;;;;0.00;0.00;;;;;;;7.00;50.49;102777.28;7352780;19;20467;-61
2022/03/06 00:09:03;;;;;;;0.00;0.00;;;;;;;6.98;50.28;102778.94;7359685;19;20443;-62
2022/03/06 00:11:29;;;;;;;0.05;0.05;;;;;;;6.94;50.18;102787.50;7357440;19;20790;-62
2022/03/06 00:13:54;;;;;;;0.00;0.00;;;;;;;6.87;50.01;102783.00;7358346;19;20025;-61
2022/03/06 00:16:20;;;;;;;0.00;0.00;;;;;;;6.79;50.79;102777.59;7365761;19;20883;-62
2022/03/06 00:18:45;;;;;;;0.00;0.00;;;;;;;6.74;50.48;102774.91;7352333;19;20050;-60
2022/03/06 00:21:12;;;;;;;0.08;0.08;;;;;;;6.66;50.42;102765.16;7360632;19;20021;-61
2022/03/06 00:23:37;;;;;;;0.00;0.00;;;;;;;6.65;50.45;102778.97;7355781;19;20038;-61
2022/03/06 00:26:03;;;;;;;0.00;0.00;;;;;;;6.61;50.77;102782.31;7358877;19;20019;-62
2022/03/06 00:28:29;;;;;;;0.00;0.00;;;;;;;6.57;51.22;102780.47;7355811;19;20041;-61
2022/03/06 00:30:54;;;;;;;0.08;0.08;;;;;;;6.52;51.01;102777.75;7356013;19;20022;-62
2022/03/06 00:33:20;;;;;;;0.00;0.00;;;;;;;6.52;51.07;102782.06;7353172;19;20753;-60
2022/03/06 00:35:46;;;;;;;0.10;0.10;;;;;;;6.52;51.19;102776.88;7356798;19;20034;-61
2022/03/06 00:38:11;;;;;;;0.00;0.00;;;;;;;6.50;51.48;102785.50;7344619;19;20023;-62
2022/03/06 00:40:36;;;;;;;0.00;0.00;;;;;;;6.50;51.34;102782.91;7360857;19;20402;-61
2022/03/06 00:43:18;;;;;;;0.00;0.00;;;;;;;6.36;50.50;102771.25;4197501;19;10002200;-62
2022/03/06 00:45:44;;;;;;;0.00;0.00;;;;;;;6.44;51.11;102784.47;5019384;19;10000993;-62
2022/03/06 00:48:10;;;;;;;0.10;0.10;;;;;;;6.40;51.05;102778.31;7354200;19;20029;-61
2022/03/06 00:50:36;;;;;;;0.00;0.00;;;;;;;6.22;51.35;102742.31;7355882;19;20352;-61
2022/03/06 00:53:03;;;;;;;0.00;0.00;;;;;;;6.35;51.17;102769.50;7358006;19;20066;-62
2022/03/06 00:55:30;;;;;;;0.00;0.00;;;;;;;6.21;51.04;102750.06;7365805;19;20026;-61
2022/03/06 00:57:56;;;;;;;0.00;0.00;;;;;;;6.32;51.10;102779.78;7364176;19;20002;-61
2022/03/06 01:00:22;;;;;;;0.10;0.10;;;;;;;6.31;51.15;102769.38;7365284;19;20006;-61
2022/03/06 01:02:47;;;;;;;0.00;0.00;;;;;;;6.29;51.36;102771.94;7353758;19;20038;-59
2022/03/06 01:05:13;;;;;;;0.00;0.00;;;;;;;6.26;51.40;102769.25;7358166;19;20018;-62
2022/03/06 01:07:38;;;;;;;0.00;0.00;;;;;;;6.25;51.09;102777.88;7353398;19;20006;-62
2022/03/06 01:10:04;;;;;;;0.00;0.00;;;;;;;6.19;51.50;102773.38;7349792;19;20022;-61
2022/03/06 01:12:30;;;;;;;0.00;0.00;;;;;;;6.19;51.78;102780.28;7356110;19;20046;-61
2022/03/06 01:14:55;;;;;;;0.10;0.10;;;;;;;6.15;51.57;102776.72;7349426;19;20040;-61
2022/03/06 01:17:21;;;;;;;0.00;0.00;;;;;;;6.12;51.35;102774.03;7359593;19;20037;-62
2022/03/06 01:19:47;;;;;;;0.00;0.00;;;;;;;6.09;51.45;102776.56;7364588;19;20010;-61
2022/03/06 01:22:13;;;;;;;0.00;0.00;;;;;;;6.08;51.83;102771.31;7366171;19;20018;-61
2022/03/06 01:24:39;;;;;;;0.00;0.00;;;;;;;5.97;52.12;102761.50;7362182;19;20006;-60
2022/03/06 01:27:04;;;;;;;0.00;0.00;;;;;;;6.05;52.44;102772.09;7361143;19;20002;-61
2022/03/06 01:29:30;;;;;;;0.00;0.00;;;;;;;6.05;51.92;102773.81;7354910;19;20014;-61
2022/03/06 01:31:55;;;;;;;0.00;0.00;;;;;;;6.06;52.11;102778.16;7365559;19;20040;-61
2022/03/06 01:34:21;;;;;;;0.03;0.03;;;;;;;6.06;51.99;102775.56;7354894;19;20018;-62
2022/03/06 01:36:46;;;;;;;0.10;0.10;;;;;;;6.07;52.04;102777.31;7364014;19;20641;-61
2022/03/06 01:39:12;;;;;;;0.00;0.00;;;;;;;6.06;51.92;102781.63;7357783;19;20046;-60
2022/03/06 01:41:37;;;;;;;0.00;0.00;;;;;;;6.05;52.31;102785.06;7362706;19;20017;-62
2022/03/06 01:44:04;;;;;;;0.00;0.00;;;;;;;6.04;52.54;102778.13;7365500;19;20014;-62
2022/03/06 01:46:29;;;;;;;0.00;0.00;;;;;;;6.03;52.18;102775.47;7356028;19;20024;-60
2022/03/06 01:48:55;;;;;;;0.00;0.00;;;;;;;6.03;52.24;102778.94;7346374;19;20019;-62
2022/03/06 01:51:20;;;;;;;0.00;0.00;;;;;;;6.03;52.25;102778.06;7357912;19;20420;-62
2022/03/06 01:53:46;;;;;;;0.00;0.00;;;;;;;6.01;52.56;102771.97;7364467;19;20352;-61
2022/03/06 01:56:13;;;;;;;0.00;0.00;;;;;;;6.01;52.30;102769.38;7360246;19;20006;-61
2022/03/06 01:58:39;;;;;;;0.00;0.00;;;;;;;5.99;52.16;102761.56;7362064;19;20078;-62
2022/03/06 02:01:04;;;;;;;0.00;0.00;;;;;;;5.98;52.61;102771.06;7362297;19;20081;-62
2022/03/06 02:03:30;;;;;;;0.00;0.00;;;;;;;5.94;52.74;102761.44;7361448;19;20007;-62
2022/03/06 02:05:55;;;;;;;0.10;0.10;;;;;;;5.92;52.50;102763.06;7356417;19;20069;-59
2022/03/06 02:08:21;;;;;;;0.00;0.00;;;;;;;5.81;52.41;102746.28;7361168;19;20022;-61
2022/03/06 02:10:49;;;;;;;0.00;0.00;;;;;;;5.90;52.93;102756.06;7362983;19;20471;-61
2022/03/06 02:13:14;;;;;;;0.10;0.10;;;;;;;5.86;52.64;102756.81;7360227;19;20022;-61
2022/03/06 02:15:40;;;;;;;0.00;0.00;;;;;;;5.83;52.43;102752.41;7353135;19;20033;-62
2022/03/06 02:18:05;;;;;;;0.00;0.00;;;;;;;5.76;52.16;102744.41;7361770;19;20014;-60
2022/03/06 02:20:31;;;;;;;0.10;0.10;;;;;;;5.75;52.40;102732.28;7350460;19;20010;-61
2022/03/06 02:22:58;;;;;;;0.10;0.10;;;;;;;5.70;52.37;102742.50;7365177;19;20763;-62
2022/03/06 02:25:32;;;;;;;0.00;0.00;;;;;;;5.67;52.04;102745.00;7372146;19;20010;-61
2022/03/06 02:28:00;;;;;;;0.00;0.00;;;;;;;5.60;52.81;102738.75;7368062;19;20013;-61
2022/03/06 02:30:31;;;;;;;0.00;0.00;;;;;;;5.57;52.76;102741.25;7365748;19;20026;-61
2022/03/06 02:32:59;;;;;;;0.00;0.00;;;;;;;5.53;53.26;102741.13;7355216;19;20007;-61
2022/03/06 02:35:26;;;;;;;0.10;0.10;;;;;;;5.53;53.60;102746.31;7363622;19;20824;-62
2022/03/06 02:37:52;;;;;;;0.10;0.10;;;;;;;5.41;53.49;102729.53;7359890;19;20002;-61
2022/03/06 02:40:20;;;;;;;0.00;0.00;;;;;;;5.48;53.78;102746.16;7362833;19;20021;-61
2022/03/06 02:42:47;;;;;;;0.00;0.00;;;;;;;5.46;53.69;102740.91;7360200;19;20019;-61
2022/03/06 02:45:18;;;;;;;0.00;0.00;;;;;;;5.43;53.56;102740.84;7360334;19;20026;-61
2022/03/06 02:47:44;;;;;;;0.00;0.00;;;;;;;5.40;53.23;102748.50;7361977;19;20029;-61
2022/03/06 02:50:14;;;;;;;0.00;0.00;;;;;;;5.39;53.54;102744.16;7359900;19;20014;-61
2022/03/06 02:52:40;;;;;;;0.00;0.00;;;;;;;5.34;53.64;102737.97;7360555;19;20037;-62
2022/03/06 02:55:07;;;;;;;0.08;0.08;;;;;;;5.34;53.00;102745.72;7359700;19;21135;-59
2022/03/06 02:57:32;;;;;;;0.00;0.00;;;;;;;5.30;53.53;102732.63;7358560;19;20103;-61
2022/03/06 02:59:58;;;;;;;0.00;0.00;;;;;;;5.26;53.31;102725.59;7349512;19;20018;-62
2022/03/06 03:02:24;;;;;;;0.00;0.00;;;;;;;5.25;53.41;102731.59;7357293;19;20022;-62
2022/03/06 03:04:50;;;;;;;0.00;0.00;;;;;;;5.24;54.00;102737.63;7354642;19;20485;-60
2022/03/06 03:07:27;;;;;;;0.09;0.09;;;;;;;5.21;54.16;102733.22;2303769;19;10149564;-62
2022/03/06 03:09:52;;;;;;;0.10;0.10;;;;;;;5.16;53.69;102734.78;6633075;19;10001097;-62
2022/03/06 03:12:18;;;;;;;0.03;0.03;;;;;;;5.16;53.93;102737.34;7357958;19;20424;-61
2022/03/06 03:14:43;;;;;;;0.00;0.00;;;;;;;5.13;53.76;102734.69;7347132;19;20018;-61
2022/03/06 03:17:09;;;;;;;0.00;0.00;;;;;;;5.10;53.72;102735.47;7357230;19;20018;-61
2022/03/06 03:19:34;;;;;;;0.10;0.10;;;;;;;5.09;53.27;102727.66;7363554;19;20471;-61
2022/03/06 03:21:59;;;;;;;0.00;0.00;;;;;;;5.05;53.72;102730.97;7352052;19;20074;-60
2022/03/06 03:24:25;;;;;;;0.00;0.00;;;;;;;5.02;53.50;102724.00;7359046;19;20602;-61
2022/03/06 03:26:51;;;;;;;0.10;0.10;;;;;;;5.00;53.54;102722.16;7345009;19;20043;-61
2022/03/06 03:29:17;;;;;;;0.00;0.00;;;;;;;4.95;54.37;102715.13;7359314;19;20701;-61
2022/03/06 03:31:43;;;;;;;0.10;0.10;;;;;;;4.90;53.90;102708.91;7354866;19;20011;-61
2022/03/06 03:34:08;;;;;;;0.00;0.00;;;;;;;4.89;54.06;102708.88;7354398;19;20359;-61
2022/03/06 03:36:33;;;;;;;0.00;0.00;;;;;;;4.88;54.58;102715.75;7353229;19;20597;-61
2022/03/06 03:38:59;;;;;;;0.00;0.00;;;;;;;4.86;55.26;102717.41;7359876;19;20014;-61
2022/03/06 03:41:24;;;;;;;0.00;0.00;;;;;;;4.79;55.53;102710.28;7357916;19;20055;-61
2022/03/06 03:43:51;;;;;;;0.10;0.10;;;;;;;4.85;55.59;102722.53;7364616;19;20022;-62
2022/03/06 03:46:18;;;;;;;0.10;0.10;;;;;;;4.80;55.69;102714.63;7339809;19;20027;-61
2022/03/06 03:48:43;;;;;;;0.00;0.00;;;;;;;4.84;55.94;102711.31;7365853;19;20037;-61
2022/03/06 03:51:10;;;;;;;0.00;0.00;;;;;;;4.78;55.91;102707.66;7352465;19;20011;-61
2022/03/06 03:53:35;;;;;;;0.10;0.10;;;;;;;4.83;55.53;102714.72;7366785;19;20034;-61
2022/03/06 03:56:01;;;;;;;0.10;0.10;;;;;;;4.83;55.67;102717.31;7363082;19;20018;-61
2022/03/06 03:58:26;;;;;;;0.00;0.00;;;;;;;4.83;55.76;102722.50;7358646;19;20007;-61
2022/03/06 04:00:54;;;;;;;0.00;0.00;;;;;;;4.82;55.80;102720.75;7367416;19;20136;-61
2022/03/06 04:03:20;;;;;;;0.00;0.00;;;;;;;4.76;56.02;102706.69;7360527;19;20010;-61
2022/03/06 04:05:46;;;;;;;0.00;0.00;;;;;;;4.80;56.00;102709.44;7347108;19;21370;-66
2022/03/06 04:08:11;;;;;;;0.00;0.00;;;;;;;4.81;55.95;102708.59;7354887;19;20066;-61
2022/03/06 04:10:37;;;;;;;0.00;0.00;;;;;;;4.77;56.18;102709.34;7352548;19;20024;-62
2022/03/06 04:13:02;;;;;;;0.00;0.00;;;;;;;4.79;56.25;102715.44;7357529;19;20035;-60
2022/03/06 04:15:28;;;;;;;0.10;0.10;;;;;;;4.80;56.59;102718.91;7345424;19;20014;-61
2022/03/06 04:17:53;;;;;;;0.00;0.00;;;;;;;4.78;56.67;102731.81;7344339;19;20010;-62
2022/03/06 04:20:19;;;;;;;0.10;0.10;;;;;;;4.76;56.38;102728.28;7353686;19;20018;-62
2022/03/06 04:22:44;;;;;;;0.10;0.10;;;;;;;4.76;55.85;102732.56;7353255;19;20599;-60
2022/03/06 04:25:10;;;;;;;0.10;0.10;;;;;;;4.76;55.81;102738.63;7355885;19;20378;-61
2022/03/06 04:27:35;;;;;;;0.00;0.00;;;;;;;4.63;55.77;102720.94;7355807;19;20014;-61
2022/03/06 04:30:01;;;;;;;0.00;0.00;;;;;;;4.73;55.16;102738.53;7355806;19;20006;-61
2022/03/06 04:32:26;;;;;;;0.00;0.00;;;;;;;4.70;55.33;102741.00;7358471;19;20015;-62
2022/03/06 04:34:52;;;;;;;0.00;0.00;;;;;;;4.67;55.64;102733.16;7355641;19;20026;-61
2022/03/06 04:37:18;;;;;;;0.00;0.00;;;;;;;4.62;55.58;102735.59;7351483;19;20010;-61
2022/03/06 04:39:43;;;;;;;0.00;0.00;;;;;;;4.60;56.25;102731.19;7356014;19;20049;-61
2022/03/06 04:42:09;;;;;;;0.10;0.10;;;;;;;4.52;56.46;102732.63;7360354;19;20042;-61
2022/03/06 04:44:34;;;;;;;0.00;0.00;;;;;;;4.49;56.16;102728.22;7352740;19;20009;-60
2022/03/06 04:47:00;;;;;;;0.00;0.00;;;;;;;4.49;56.45;102727.34;7362211;19;20018;-61
2022/03/06 04:49:25;;;;;;;0.00;0.00;;;;;;;4.47;56.49;102726.44;7352688;19;20021;-61
2022/03/06 04:51:51;;;;;;;0.00;0.00;;;;;;;4.46;56.19;102737.56;7373457;19;20024;-61
2022/03/06 04:54:16;;;;;;;0.10;0.10;;;;;;;4.43;56.61;102741.81;7365316;19;20731;-61
2022/03/06 04:56:42;;;;;;;0.00;0.00;;;;;;;4.42;56.27;102729.72;7360791;19;20093;-60
2022/03/06 04:59:07;;;;;;;0.00;0.00;;;;;;;4.41;56.56;102725.38;7359789;19;20078;-61
2022/03/06 05:01:33;;;;;;;0.10;0.10;;;;;;;4.40;56.38;102712.38;7366583;19;20010;-61
2022/03/06 05:04:00;;;;;;;0.10;0.10;;;;;;;4.39;56.25;102721.84;7363372;19;20038;-61
2022/03/06 05:06:26;;;;;;;0.00;0.00;;;;;;;4.39;57.05;102716.66;7361692;19;20400;-60
2022/03/06 05:08:51;;;;;;;0.05;0.05;;;;;;;4.38;56.78;102714.91;7360772;19;20018;-61
2022/03/06 05:11:17;;;;;;;0.00;0.00;;;;;;;4.38;57.12;102717.50;7364866;19;20388;-61
2022/03/06 05:13:42;;;;;;;0.00;0.00;;;;;;;4.38;57.35;102719.22;7363638;19;20010;-62
2022/03/06 05:16:08;;;;;;;0.00;0.00;;;;;;;4.38;57.79;102727.84;7357819;19;20010;-61
2022/03/06 05:18:33;;;;;;;0.00;0.00;;;;;;;4.37;57.44;102722.63;7358712;19;20022;-62
2022/03/06 05:20:59;;;;;;;0.00;0.00;;;;;;;4.38;57.34;102724.38;7360529;19;20011;-61
2022/03/06 05:23:24;;;;;;;0.10;0.10;;;;;;;4.37;57.58;102723.50;7362305;19;20011;-62
2022/03/06 05:25:50;;;;;;;0.10;0.10;;;;;;;4.36;57.16;102716.59;7351156;19;20018;-60
2022/03/06 05:28:15;;;;;;;0.00;0.00;;;;;;;4.34;57.17;102720.81;7363215;19;20063;-60
2022/03/06 05:30:41;;;;;;;0.03;0.03;;;;;;;4.34;57.08;102728.56;7363820;19;20351;-61
2022/03/06 05:33:07;;;;;;;0.00;0.00;;;;;;;4.32;57.02;102730.22;7365749;19;20022;-61
2022/03/06 05:35:32;;;;;;;0.03;0.03;;;;;;;4.30;56.84;102734.44;7371315;19;20005;-61
2022/03/06 05:38:01;;;;;;;0.00;0.00;;;;;;;4.26;57.08;102729.09;4567659;19;10001965;-61
2022/03/06 05:40:27;;;;;;;0.10;0.10;;;;;;;4.26;57.45;102731.69;4007993;19;10001820;-62
2022/03/06 05:42:52;;;;;;;0.05;0.05;;;;;;;4.24;57.40;102731.66;7362287;19;20138;-62
2022/03/06 05:45:18;;;;;;;0.10;0.10;;;;;;;4.20;57.48;102724.59;7357221;19;20018;-61
2022/03/06 05:47:43;;;;;;;0.00;0.00;;;;;;;4.19;57.41;102727.13;7361255;19;20430;-61
2022/03/06 05:50:10;;;;;;;0.00;0.00;;;;;;;4.16;57.16;102727.94;7363942;19;20018;-61
2022/03/06 05:52:36;;;;;;;0.00;0.00;;;;;;;3.83;57.39;102681.91;7360617;19;20062;-61
2022/03/06 05:55:03;;;;;;;0.00;0.00;;;;;;;4.09;57.50;102736.28;7353531;19;20525;-61
2022/03/06 05:57:29;;;;;;;0.00;0.00;;;;;;;3.97;57.67;102721.19;7363977;19;21072;-61
2022/03/06 05:59:55;;;;;;;0.05;0.05;;;;;;;3.97;57.69;102728.94;7363434;19;20013;-61
2022/03/06 06:02:21;;;;;;;0.00;0.00;;;;;;;3.85;58.37;102711.28;7349331;19;20007;-61
2022/03/06 06:04:48;;;;;;;0.10;0.10;;;;;;;3.92;57.91;102729.63;7358357;19;20017;-60
2022/03/06 06:07:13;;;;;;;0.00;0.00;;;;;;;3.90;57.58;102727.84;7363135;19;20007;-61
2022/03/06 06:09:39;;;;;;;0.00;0.00;;;;;;;3.87;57.50;102714.81;7355783;19;20013;-61
2022/03/06 06:12:05;;;;;;;0.00;0.00;;;;;;;3.78;57.63;102709.28;7363756;19;20074;-62
2022/03/06 06:14:31;;;;;;;0.00;0.00;;;;;;;3.82;57.26;102721.50;7356025;19;21274;-61
2022/03/06 06:16:56;;;;;;;0.10;0.10;;;;;;;3.80;57.87;102722.25;7363594;19;20021;-62
2022/03/06 06:19:21;;;;;;;0.00;0.00;;;;;;;3.77;57.71;102728.22;7353245;19;20018;-61
2022/03/06 06:21:47;;;;;;;0.08;0.08;;;;;;;3.74;57.95;102730.66;7364093;19;20014;-61
2022/03/06 06:24:14;;;;;;;0.00;0.00;;;;;;;3.71;57.59;102730.56;7352676;19;20018;-59
2022/03/06 06:26:41;;;;;;;0.00;0.00;;;;;;;3.68;57.49;102727.84;7371944;19;20014;-61
2022/03/06 06:29:06;;;;;;;0.05;0.05;;;;;;;3.67;57.55;102728.69;7355084;19;20013;-61
2022/03/06 06:31:32;;;;;;;0.00;0.00;;;;;;;3.63;57.53;102722.50;7359660;19;20756;-62
2022/03/06 06:33:58;;;;;;;0.00;0.00;;;;;;;3.60;57.33;102721.53;7365722;19;20042;-60
2022/03/06 06:36:23;;;;;;;0.00;0.00;;;;;;;3.58;57.39;102721.44;7361405;19;20925;-61
2022/03/06 06:38:49;;;;;;;0.00;0.00;;;;;;;3.56;57.73;102729.97;7362456;19;20074;-62
2022/03/06 06:41:14;;;;;;;0.00;0.00;;;;;;;3.52;58.14;102726.38;7360661;19;20006;-61
2022/03/06 06:43:42;;;;;;;0.08;0.08;;;;;;;3.49;58.53;102730.56;7339920;19;20023;-61
2022/03/06 06:46:08;;;;;;;0.10;0.10;;;;;;;3.39;58.62;102717.28;7361724;19;20022;-62
2022/03/06 06:48:33;;;;;;;0.00;0.00;;;;;;;3.47;59.18;102727.03;7356095;19;20014;-61
2022/03/06 06:50:59;;;;;;;0.10;0.10;;;;;;;3.46;58.78;102730.44;7356088;19;20021;-62
2022/03/06 06:53:24;;;;;;;0.00;0.00;;;;;;;3.44;58.71;102727.78;7358469;19;20018;-61
2022/03/06 06:55:50;;;;;;;0.10;0.10;;;;;;;3.44;58.44;102737.25;7348074;19;20014;-61
2022/03/06 06:58:15;;;;;;;0.00;0.00;;;;;;;3.29;59.18;102715.16;7362682;19;20022;-59
2022/03/06 07:00:41;;;;;;;0.00;0.00;;;;;;;3.42;58.63;102738.88;7356095;19;20032;-61
2022/03/06 07:03:07;;;;;;;0.10;0.10;;;;;;;3.42;58.76;102733.72;7365640;19;20039;-62
2022/03/06 07:05:32;;;;;;;0.00;0.00;;;;;;;3.36;58.56;102724.91;7350090;19;20030;-61
2022/03/06 07:07:58;;;;;;;0.10;0.10;;;;;;;3.41;59.02;102737.13;7360140;19;20094;-61
2022/03/06 07:10:23;;;;;;;0.10;0.10;;;;;;;3.41;59.21;102739.72;7356921;19;20423;-62
2022/03/06 07:12:55;;;;;;;0.00;0.00;;;;;;;3.28;59.62;102718.56;7357111;19;20030;-61
2022/03/06 07:15:26;;;;;;;0.00;0.00;;;;;;;3.43;59.43;102745.81;7350345;19;20007;-59
2022/03/06 07:17:51;;;;;;;0.10;0.10;;;;;;;3.44;59.09;102747.56;7363339;19;20371;-60
2022/03/06 07:20:17;;;;;;;0.10;0.10;;;;;;;3.42;58.78;102734.59;7358024;19;20018;-62
2022/03/06 07:22:42;;;;;;;0.00;0.00;;;;;;;3.46;58.99;102751.09;7355889;19;20561;-61
2022/03/06 07:25:17;;;;;;;0.10;0.10;;;;;;;3.45;59.48;102745.06;7029679;19;10000385;-61
2022/03/06 07:27:42;;;;;;;0.10;0.10;;;;;;;3.39;59.04;102732.75;1719563;19;10002177;-61
2022/03/06 07:30:09;;;;;;;0.00;0.00;;;;;;;3.49;59.33;102748.63;7356514;19;20468;-61
2022/03/06 07:32:41;;;;;;;0.03;0.03;;;;;;;3.51;58.99;102739.25;7357946;19;20010;-61
2022/03/06 07:35:07;;;;;;;0.00;0.00;;;;;;;3.48;59.40;102739.13;7345609;19;20097;-62
2022/03/06 07:37:33;;;;;;;0.00;0.00;;;;;;;3.56;59.49;102745.47;7361148;19;20002;-61
2022/03/06 07:39:58;;;;;;;0.00;0.00;;;;;;;3.57;59.22;102750.69;7357612;19;20039;-61
2022/03/06 07:42:24;;;;;;;0.10;0.10;;;;;;;3.50;59.65;102743.53;7353156;19;20009;-61
2022/03/06 07:44:49;;;;;;;0.10;0.10;;;;;;;3.66;59.85;102757.06;7355183;19;20039;-61
2022/03/06 07:47:15;;;;;;;0.10;0.10;;;;;;;3.70;59.83;102751.16;7356871;19;20025;-61
2022/03/06 07:49:40;;;;;;;0.10;0.10;;;;;;;3.75;60.01;102742.78;7357508;19;20014;-61
2022/03/06 07:52:06;;;;;;;0.00;0.00;;;;;;;3.78;59.92;102736.84;7350209;19;20014;-61
2022/03/06 07:54:31;;;;;;;0.03;0.03;;;;;;;3.79;59.87;102736.88;7354851;19;20010;-62
2022/03/06 07:56:57;;;;;;;0.10;0.10;;;;;;;3.85;59.81;102747.47;7353338;19;20102;-61
2022/03/06 07:59:25;;;;;;;0.10;0.10;;;;;;;3.88;60.46;102755.34;7367182;19;20031;-61
2022/03/06 08:01:51;;;;;;;0.00;0.00;;;;;;;3.93;60.53;102765.84;7365624;19;20672;-62
2022/03/06 08:04:17;;;;;;;0.10;0.10;;;;;;;3.96;59.91;102759.94;7364815;19;20010;-61
2022/03/06 08:06:42;;;;;;;0.05;0.05;;;;;;;4.00;60.39;102756.59;7363091;19;20022;-61
2022/03/06 08:09:07;;;;;;;0.00;0.00;;;;;;;4.03;60.32;102761.91;7333538;19;20083;-61
2022/03/06 08:11:33;;;;;;;0.00;0.00;;;;;;;4.07;60.10;102756.03;7347694;19;20013;-61
2022/03/06 08:13:58;;;;;;;0.10;0.10;;;;;;;4.13;60.39;102753.66;7347359;19;20014;-61
2022/03/06 08:16:24;;;;;;;0.10;0.10;;;;;;;4.25;60.38;102759.25;7355680;19;20022;-61
2022/03/06 08:18:49;;;;;;;0.00;0.00;;;;;;;4.38;60.28;102751.13;7356560;19;20077;-62
2022/03/06 08:21:15;;;;;;;0.10;0.10;;;;;;;4.56;60.13;102750.00;7348684;19;20034;-61
2022/03/06 08:23:40;;;;;;;0.05;0.05;;;;;;;4.75;60.04;102757.56;7352796;19;20042;-61
2022/03/06 08:26:06;;;;;;;0.10;0.10;;;;;;;4.91;59.66;102765.03;7350661;19;20018;-62
2022/03/06 08:28:31;;;;;;;0.00;0.00;;;;;;;5.04;59.86;102765.47;7359602;19;20070;-61
2022/03/06 08:30:56;;;;;;;0.10;0.10;;;;;;;5.12;59.97;102758.81;7363052;19;20011;-61
2022/03/06 08:33:22;;;;;;;0.00;0.00;;;;;;;5.22;59.76;102755.72;7358068;19;20010;-62
2022/03/06 08:35:47;;;;;;;0.10;0.10;;;;;;;5.33;59.55;102741.38;7359826;19;20121;-60
2022/03/06 08:38:13;;;;;;;0.05;0.05;;;;;;;5.53;59.68;102752.38;7361050;19;20022;-61
2022/03/06 08:40:38;;;;;;;0.00;0.00;;;;;;;5.71;59.09;102759.81;7359859;19;20018;-62
2022/03/06 08:43:04;;;;;;;0.00;0.00;;;;;;;5.94;59.00;102758.84;7352720;19;20022;-61
2022/03/06 08:45:29;;;;;;;0.03;0.03;;;;;;;6.23;59.10;102764.88;7357283;19;20022;-61
2022/03/06 08:47:55;;;;;;;0.00;0.00;;;;;;;6.37;58.08;102734.09;7361433;19;20019;-62
2022/03/06 08:50:20;;;;;;;0.00;0.00;;;;;;;6.72;57.93;102757.50;7367784;19;20031;-62
2022/03/06 08:52:46;;;;;;;0.00;0.00;;;;;;;6.98;57.86;102751.25;7363726;19;20605;-61
2022/03/06 08:55:11;;;;;;;0.08;0.08;;;;;;;7.27;58.09;102748.50;7347378;19;20076;-62
2022/03/06 08:57:37;;;;;;;0.00;0.00;;;;;;;7.43;56.89;102735.00;7360998;19;20014;-62
2022/03/06 09:00:04;;;;;;;0.00;0.00;;;;;;;7.76;57.10;102757.44;7360465;19;20103;-62
2022/03/06 09:02:30;;;;;;;0.00;0.00;;;;;;;8.00;56.76;102767.47;7356210;19;20011;-62
2022/03/06 09:04:55;;;;;;;0.00;0.00;;;;;;;8.22;56.73;102758.38;7361307;19;20022;-62
2022/03/06 09:07:21;;;;;;;0.00;0.00;;;;;;;8.57;57.12;102762.59;7347188;19;20006;-62
2022/03/06 09:09:46;;;;;;;0.00;0.00;;;;;;;8.94;57.33;102759.75;7360697;19;21029;-62
2022/03/06 09:12:12;;;;;;;0.00;0.00;;;;;;;9.34;57.45;102763.88;7358443;19;20010;-62
2022/03/06 09:14:37;;;;;;;0.00;0.00;;;;;;;9.77;56.50;102764.50;7337634;19;20035;-62
2022/03/06 09:17:03;;;;;;;0.00;0.00;;;;;;;10.22;56.06;102765.94;7358909;19;20011;-62
2022/03/06 09:19:29;;;;;;;0.00;0.00;;;;;;;10.61;55.38;102763.81;7358012;19;20017;-62
2022/03/06 09:21:54;;;;;;;0.00;0.00;;;;;;;10.94;54.17;102751.03;7347125;19;20022;-62
2022/03/06 09:24:20;;;;;;;0.00;0.00;;;;;;;11.16;53.10;102759.06;7359196;19;20053;-62
2022/03/06 09:26:47;;;;;;;0.00;0.00;;;;;;;11.26;52.04;102759.16;7361123;19;20022;-61
2022/03/06 09:29:12;;;;;;;0.00;0.00;;;;;;;11.31;52.28;102752.22;7365980;19;20032;-62
2022/03/06 09:31:39;;;;;;;0.10;0.10;;;;;;;11.43;51.51;102763.63;7370256;19;20053;-61
2022/03/06 09:34:25;;;;;;;0.00;0.00;;;;;;;11.68;51.90;102763.78;2768486;19;10279863;-62
2022/03/06 09:36:50;;;;;;;0.00;0.00;;;;;;;11.77;51.57;102762.97;6650312;19;10000917;-62
2022/03/06 09:39:16;;;;;;;0.10;0.10;;;;;;;11.94;51.43;102756.97;7371479;19;20041;-62
2022/03/06 09:41:42;;;;;;;0.00;0.00;;;;;;;12.27;50.59;102759.72;7359358;19;20044;-62
2022/03/06 09:44:10;;;;;;;0.00;0.00;;;;;;;12.51;50.15;102754.53;7341017;19;20123;-62
2022/03/06 09:46:37;;;;;;;0.00;0.00;;;;;;;12.81;49.13;102750.22;7361724;19;20026;-60
2022/03/06 09:49:04;;;;;;;0.00;0.00;;;;;;;12.93;48.24;102739.75;7360828;19;20010;-62
2022/03/06 09:51:34;;;;;;;0.00;0.00;;;;;;;13.08;48.05;102760.72;7359530;19;20014;-62
2022/03/06 09:53:59;;;;;;;0.00;0.00;;;;;;;13.06;47.76;102757.22;7359982;19;20037;-62
2022/03/06 09:56:25;;;;;;;0.00;0.00;;;;;;;13.16;48.01;102761.56;7358400;19;20007;-62
2022/03/06 09:58:50;;;;;;;0.00;0.00;;;;;;;13.23;47.60;102759.88;7361191;19;20018;-62
2022/03/06 10:01:16;;;;;;;0.00;0.00;;;;;;;13.26;47.11;102766.84;7355780;19;20014;-62
2022/03/06 10:03:41;;;;;;;0.00;0.00;;;;;;;13.23;47.52;102763.38;7361510;19;20006;-62
2022/03/06 10:06:07;;;;;;;0.05;0.05;;;;;;;13.21;46.72;102744.13;7352477;19;20627;-61
2022/03/06 10:08:34;;;;;;;0.00;0.00;;;;;;;13.41;46.50;102756.34;7360555;19;20579;-62
2022/03/06 10:11:06;;;;;;;0.00;0.00;;;;;;;13.74;47.03;102756.28;7358789;19;20011;-62
2022/03/06 10:13:37;;;;;;;0.00;0.00;;;;;;;13.98;46.81;102746.53;7353973;19;20139;-62
2022/03/06 10:16:09;;;;;;;0.00;0.00;;;;;;;14.30;46.16;102745.53;7360052;19;20486;-62
2022/03/06 10:18:43;;;;;;;0.03;0.03;;;;;;;14.66;46.27;102744.47;7354580;19;20023;-62
2022/03/06 10:21:09;;;;;;;0.00;0.00;;;;;;;14.88;44.73;102740.78;7354619;19;20014;-62
2022/03/06 10:23:34;;;;;;;0.00;0.00;;;;;;;15.18;44.31;102739.66;7357199;19;20006;-62
2022/03/06 10:26:05;;;;;;;0.00;0.00;;;;;;;15.54;43.39;102732.25;7359129;19;20014;-61
2022/03/06 10:28:31;;;;;;;0.00;0.00;;;;;;;15.73;42.86;102727.69;7359321;19;20648;-62
2022/03/06 10:31:04;;;;;;;0.00;0.00;;;;;;;16.19;43.20;102733.25;7360815;19;20038;-62
2022/03/06 10:33:30;;;;;;;0.00;0.00;;;;;;;16.37;41.77;102741.78;7355949;19;20018;-62
2022/03/06 10:35:58;;;;;;;0.00;0.00;;;;;;;16.62;40.89;102727.34;7360802;19;20006;-62
2022/03/06 10:38:26;;;;;;;0.00;0.00;;;;;;;16.84;40.20;102727.91;7364052;19;20019;-62
2022/03/06 10:40:53;;;;;;;0.10;0.10;;;;;;;16.99;39.60;102711.81;7355913;19;20010;-62
2022/03/06 10:43:25;;;;;;;0.10;0.10;;;;;;;17.24;40.88;102722.81;7346070;19;20011;-62
2022/03/06 10:46:05;;;;;;;0.10;0.10;;;;;;;17.36;39.72;102719.94;7358991;19;20023;-62
2022/03/06 10:48:30;;;;;;;0.10;0.10;;;;;;;17.54;39.01;102720.50;7355657;19;20021;-61
2022/03/06 10:51:00;;;;;;;0.00;0.00;;;;;;;17.81;38.96;102719.97;7355816;19;20010;-61
2022/03/06 10:53:25;;;;;;;0.00;0.00;;;;;;;17.87;38.10;102711.91;7357062;19;20565;-62
2022/03/06 10:55:54;;;;;;;0.05;0.05;;;;;;;18.06;38.14;102712.38;7356763;19;20029;-62
2022/03/06 10:58:21;;;;;;;0.03;0.03;;;;;;;18.25;37.48;102712.84;7357512;19;20006;-62
2022/03/06 11:00:48;;;;;;;0.10;0.10;;;;;;;18.50;37.70;102704.31;7347489;19;20086;-61
2022/03/06 11:03:14;;;;;;;0.10;0.10;;;;;;;18.69;36.82;102700.38;7357834;19;20010;-62
2022/03/06 11:05:45;;;;;;;0.10;0.10;;;;;;;19.07;36.30;102711.78;7357465;19;20027;-61
2022/03/06 11:08:14;;;;;;;0.10;0.10;;;;;;;19.24;36.08;102709.53;7356716;19;20102;-62
2022/03/06 11:10:42;;;;;;;0.00;0.00;;;;;;;19.43;35.63;102705.47;7348516;19;20099;-62
2022/03/06 11:13:11;;;;;;;0.10;0.10;;;;;;;19.63;35.96;102696.13;7361506;19;20002;-61
2022/03/06 11:15:36;;;;;;;0.03;0.03;;;;;;;19.79;35.68;102702.72;7359112;19;20014;-62
2022/03/06 11:18:02;;;;;;;0.05;0.05;;;;;;;20.00;35.05;102692.38;7365657;19;20137;-62
2022/03/06 11:20:30;;;;;;;0.08;0.08;;;;;;;20.21;34.95;102704.97;7366961;19;20011;-62
2022/03/06 11:23:12;;;;;;;0.05;0.05;;;;;;;20.42;35.12;102690.16;7359993;19;20077;-62
2022/03/06 11:25:51;;;;;;;0.00;0.00;;;;;;;20.50;34.70;102695.25;7351546;19;20609;-62
2022/03/06 11:28:51;;;;;;;0.10;0.10;;;;;;;20.73;37.81;102698.91;7341729;19;20180;-62